Tilden, Nebraska
Current Conditions -  °F | °C
As of 9:56 PM on Sunday 25 Jan 2015 (Local Time) from KOFK Reporting Station
Overcast Overcast  
Wind Chill: 32°   Ceiling: 10000
Heat Index: 32°   Visibility: 9mi
Dew Point: 30°   Wind: 0mph
Humidity: 92%   Direction: NA
Pressure: 30.02"   Gusts: NA
Location:  42.04°N, 97.83°W
Report Text: KOFK 260356Z AUTO 00000KT 9SM OVC100 00/M01 A3002 RMK AO2 SLP183 T00001011
Loading
Personal Weather Stations






























Interactive Weather Map New forecast layout! Learn more

10-Day Weather Forecast

Advertisements
Track Severe Weather on mobile